createdAt,value
2023-02-27T00:00:32.866Z,0.68
2023-02-27T00:01:32.830Z,0.51
2023-02-27T00:02:32.996Z,0.57
2023-02-27T00:03:32.873Z,0.56
2023-02-27T00:04:32.810Z,0.51
2023-02-27T00:05:32.809Z,0.49
2023-02-27T00:06:32.826Z,0.35
2023-02-27T00:07:32.769Z,0.31
2023-02-27T00:08:32.816Z,0.34
2023-02-27T00:09:32.751Z,0.26
2023-02-27T00:10:32.782Z,0.28
2023-02-27T00:11:32.739Z,0.31
2023-02-27T00:12:32.746Z,0.26
2023-02-27T00:13:32.712Z,0.37
2023-02-27T00:14:32.707Z,0.28
2023-02-27T00:15:32.687Z,0.23
2023-02-27T00:16:32.679Z,0.28
2023-02-27T00:17:32.685Z,0.30
2023-02-27T00:18:32.673Z,0.22
2023-02-27T00:19:32.635Z,0.23
2023-02-27T00:20:32.633Z,0.26
2023-02-27T00:21:32.658Z,0.10
2023-02-27T00:22:32.623Z,0.07
2023-02-27T00:23:32.618Z,0.08
2023-02-27T00:24:32.624Z,0.20
2023-02-27T00:25:32.580Z,0.10
2023-02-27T00:26:32.576Z,0.08
2023-02-27T00:27:32.593Z,0.12
2023-02-27T00:28:32.564Z,0.12
2023-02-27T00:29:32.537Z,0.05
2023-02-27T00:30:32.564Z,0.08
2023-02-27T00:31:32.555Z,0.10
2023-02-27T00:32:32.584Z,0.07
2023-02-27T00:33:32.517Z,0.04
2023-02-27T00:34:32.520Z,0.02
2023-02-27T00:35:32.475Z,-0.01
2023-02-27T00:36:32.495Z,0.07
2023-02-27T00:37:32.452Z,-0.05
2023-02-27T00:38:32.465Z,0.02
2023-02-27T00:39:32.451Z,-0.02
2023-02-27T00:40:32.424Z,-0.01
2023-02-27T00:41:32.405Z,0.01
2023-02-27T00:42:32.408Z,0.01
2023-02-27T00:43:32.395Z,-0.03
2023-02-27T00:44:32.376Z,-0.01
2023-02-27T00:45:32.376Z,0.04
2023-02-27T00:46:32.386Z,-0.12
2023-02-27T00:47:32.356Z,-0.05
2023-02-27T00:48:32.377Z,-0.03
2023-02-27T00:49:32.321Z,-0.01
2023-02-27T00:50:32.344Z,-0.02
2023-02-27T00:51:32.289Z,-0.03
2023-02-27T00:52:32.296Z,-0.03
2023-02-27T00:53:32.302Z,-0.01
2023-02-27T00:54:32.273Z,0.01
2023-02-27T00:55:32.250Z,-0.03
2023-02-27T00:56:32.246Z,0.01
2023-02-27T00:57:32.269Z,-0.05
2023-02-27T00:58:32.251Z,-0.06
2023-02-27T00:59:32.213Z,-0.12
2023-02-27T01:00:32.245Z,-0.08
2023-02-27T01:01:32.202Z,-0.13
2023-02-27T01:02:32.299Z,-0.03
2023-02-27T01:03:32.164Z,-0.03
2023-02-27T01:04:32.171Z,-0.05
2023-02-27T01:05:32.147Z,-0.05
2023-02-27T01:06:32.175Z,-0.05
2023-02-27T01:07:32.134Z,-0.12
2023-02-27T01:08:32.149Z,-0.09
2023-02-27T01:09:32.111Z,-0.08
2023-02-27T01:10:32.120Z,-0.12
2023-02-27T01:11:32.086Z,-0.14
2023-02-27T01:12:32.090Z,-0.17
2023-02-27T01:13:32.085Z,-0.19
2023-02-27T01:14:32.067Z,-0.23
2023-02-27T01:15:32.071Z,-0.20
2023-02-27T01:16:32.108Z,-0.14
2023-02-27T01:17:32.034Z,-0.16
2023-02-27T01:18:32.027Z,-0.13
2023-02-27T01:19:31.998Z,-0.19
2023-02-27T01:20:32.027Z,-0.27
2023-02-27T01:21:32.000Z,-0.21
2023-02-27T01:22:31.996Z,-0.23
2023-02-27T01:23:31.954Z,-0.16
2023-02-27T01:24:31.965Z,-0.21
2023-02-27T01:25:31.964Z,-0.32
2023-02-27T01:26:31.940Z,-0.21
2023-02-27T01:27:31.926Z,-0.27
2023-02-27T01:28:31.932Z,-0.35
2023-02-27T01:29:31.905Z,-0.34
2023-02-27T01:30:31.936Z,-0.34
2023-02-27T01:31:31.922Z,-0.32
2023-02-27T01:32:31.941Z,-0.37
2023-02-27T01:33:31.861Z,-0.32
2023-02-27T01:34:34.179Z,-0.34
2023-02-27T01:35:31.838Z,-0.38
2023-02-27T01:36:31.856Z,-0.37
2023-02-27T01:37:31.827Z,-0.34
2023-02-27T01:38:31.834Z,-0.34
2023-02-27T01:39:31.803Z,-0.32
2023-02-27T01:40:31.791Z,-0.31
2023-02-27T01:41:31.803Z,-0.37
2023-02-27T01:42:31.767Z,-0.31
2023-02-27T01:43:31.761Z,-0.32
2023-02-27T01:44:31.744Z,-0.34
2023-02-27T01:45:31.781Z,-0.44
2023-02-27T01:46:31.752Z,-0.37
2023-02-27T01:47:31.714Z,-0.35
2023-02-27T01:48:31.727Z,-0.47
2023-02-27T01:49:31.680Z,-0.49
2023-02-27T01:50:31.685Z,-0.47
2023-02-27T01:51:31.694Z,-0.45
2023-02-27T01:52:31.686Z,-0.52
2023-02-27T01:53:31.642Z,-0.47
2023-02-27T01:54:31.664Z,-0.55
2023-02-27T01:55:31.633Z,-0.53
2023-02-27T01:56:31.647Z,-0.55
2023-02-27T01:57:31.626Z,-0.55
2023-02-27T01:58:31.602Z,-0.60
2023-02-27T01:59:31.584Z,-0.50
2023-02-27T02:00:31.594Z,-0.59
2023-02-27T02:01:31.629Z,-0.60
2023-02-27T02:02:31.622Z,-0.58
2023-02-27T02:03:31.581Z,-0.59
2023-02-27T02:04:31.544Z,-0.55
2023-02-27T02:05:31.564Z,-0.62
2023-02-27T02:06:31.530Z,-0.67
2023-02-27T02:07:31.528Z,-0.58
2023-02-27T02:08:31.527Z,-0.58
2023-02-27T02:09:31.482Z,-0.62
2023-02-27T02:10:31.498Z,-0.62
2023-02-27T02:11:31.560Z,-0.59
2023-02-27T02:12:31.487Z,-0.62
2023-02-27T02:13:31.482Z,-0.67
2023-02-27T02:14:31.482Z,-0.62
2023-02-27T02:15:31.418Z,-0.63
2023-02-27T02:16:31.453Z,-0.63
2023-02-27T02:17:31.451Z,-0.71
2023-02-27T02:18:31.396Z,-0.63
2023-02-27T02:19:31.409Z,-0.65
2023-02-27T02:20:31.385Z,-0.71
2023-02-27T02:21:31.355Z,-0.78
2023-02-27T02:22:31.356Z,-0.68
2023-02-27T02:23:31.384Z,-0.76
2023-02-27T02:24:31.358Z,-0.65
2023-02-27T02:25:52.363Z,-0.67
2023-02-27T02:26:33.580Z,-0.55
2023-02-27T02:27:31.296Z,-0.63
2023-02-27T02:28:31.311Z,-0.68
2023-02-27T02:29:31.294Z,-0.60
2023-02-27T02:30:31.394Z,-0.59
2023-02-27T02:31:31.716Z,-0.67
2023-02-27T02:32:31.317Z,-0.53
2023-02-27T02:33:31.252Z,-0.56
2023-02-27T02:34:31.250Z,-0.52
2023-02-27T02:35:31.205Z,-0.45
2023-02-27T02:36:31.216Z,-0.52
2023-02-27T02:37:31.209Z,-0.39
2023-02-27T02:38:31.219Z,-0.52
2023-02-27T02:39:31.195Z,-0.50
2023-02-27T02:40:31.174Z,-0.37
2023-02-27T02:41:31.163Z,-0.49
2023-02-27T02:42:31.150Z,-0.52
2023-02-27T02:43:31.191Z,-0.52
2023-02-27T02:44:31.172Z,-0.58
2023-02-27T02:45:31.100Z,-0.59
2023-02-27T02:46:31.120Z,-0.60
2023-02-27T02:47:31.085Z,-0.65
2023-02-27T02:48:31.080Z,-0.62
2023-02-27T02:49:31.098Z,-0.60
2023-02-27T02:50:31.056Z,-0.67
2023-02-27T02:51:31.059Z,-0.58
2023-02-27T02:52:31.032Z,-0.63
2023-02-27T02:53:36.631Z,-0.62
2023-02-27T02:54:32.037Z,-0.60
2023-02-27T02:55:31.014Z,-0.63
2023-02-27T02:56:30.990Z,-0.67
2023-02-27T02:57:30.998Z,-0.55
2023-02-27T02:58:30.976Z,-0.55
2023-02-27T02:59:31.004Z,-0.63
2023-02-27T03:00:30.976Z,-0.56
2023-02-27T03:01:31.148Z,-0.58
2023-02-27T03:02:30.926Z,-0.60
2023-02-27T03:03:30.931Z,-0.56
2023-02-27T03:04:31.077Z,-0.55
2023-02-27T03:05:30.901Z,-0.58
2023-02-27T03:06:30.935Z,-0.58
2023-02-27T03:07:30.907Z,-0.59
2023-02-27T03:08:30.907Z,-0.62
2023-02-27T03:09:30.851Z,-0.62
2023-02-27T03:10:30.862Z,-0.68
2023-02-27T03:11:30.832Z,-0.67
2023-02-27T03:12:30.839Z,-0.65
2023-02-27T03:13:30.847Z,-0.71
2023-02-27T03:14:30.825Z,-0.70
2023-02-27T03:15:30.865Z,-0.76
2023-02-27T03:16:30.787Z,-0.70
2023-02-27T03:17:30.805Z,-0.78
2023-02-27T03:18:30.781Z,-0.81
2023-02-27T03:19:30.747Z,-0.80
2023-02-27T03:20:30.741Z,-0.76
2023-02-27T03:21:30.725Z,-0.80
2023-02-27T03:22:30.757Z,-0.78
2023-02-27T03:23:30.702Z,-0.77
2023-02-27T03:24:30.709Z,-0.81
2023-02-27T03:25:30.684Z,-0.93
2023-02-27T03:26:30.691Z,-0.78
2023-02-27T03:27:30.661Z,-0.81
2023-02-27T03:28:30.709Z,-0.93
2023-02-27T03:29:30.658Z,-0.89
2023-02-27T03:30:30.712Z,-0.96
2023-02-27T03:31:31.024Z,-1.03
2023-02-27T03:32:30.653Z,-1.00
2023-02-27T03:33:30.599Z,-1.02
2023-02-27T03:34:30.589Z,-1.03
2023-02-27T03:35:30.577Z,-1.02
2023-02-27T03:36:30.581Z,-1.02
2023-02-27T03:37:30.602Z,-1.05
2023-02-27T03:38:30.554Z,-1.02
2023-02-27T03:39:30.534Z,-1.05
2023-02-27T03:40:30.533Z,-1.02
2023-02-27T03:41:30.515Z,-1.05
2023-02-27T03:42:30.563Z,-1.17
2023-02-27T03:43:30.505Z,-1.25
2023-02-27T03:44:30.492Z,-1.20
2023-02-27T03:45:30.494Z,-1.29
2023-02-27T03:46:30.526Z,-1.18
2023-02-27T03:47:30.478Z,-1.20
2023-02-27T03:48:30.458Z,-1.20
2023-02-27T03:49:30.433Z,-1.29
2023-02-27T03:50:30.473Z,-1.21
2023-02-27T03:51:30.410Z,-1.26
2023-02-27T03:52:30.419Z,-1.29
2023-02-27T03:53:30.410Z,-1.39
2023-02-27T03:54:30.404Z,-1.38
2023-02-27T03:55:30.365Z,-1.43
2023-02-27T03:56:30.364Z,-1.44
2023-02-27T03:57:30.339Z,-1.44
2023-02-27T03:58:30.382Z,-1.41
2023-02-27T03:59:30.331Z,-1.47
2023-02-27T04:00:30.345Z,-1.47
2023-02-27T04:01:30.618Z,-1.44
2023-02-27T04:02:30.330Z,-1.59
2023-02-27T04:03:30.288Z,-1.50
2023-02-27T04:04:30.297Z,-1.59
2023-02-27T04:05:30.261Z,-1.49
2023-02-27T04:06:30.260Z,-1.61
2023-02-27T04:07:30.266Z,-1.56
2023-02-27T04:08:30.277Z,-1.46
2023-02-27T04:09:30.217Z,-1.56
2023-02-27T04:10:30.217Z,-1.59
2023-02-27T04:11:30.200Z,-1.54
2023-02-27T04:12:30.196Z,-1.56
2023-02-27T04:13:30.177Z,-1.54
2023-02-27T04:14:30.211Z,-1.56
2023-02-27T04:15:30.156Z,-1.62
2023-02-27T04:16:30.184Z,-1.61
2023-02-27T04:17:30.152Z,-1.50
2023-02-27T04:18:30.155Z,-1.51
2023-02-27T04:19:30.112Z,-1.49
2023-02-27T04:20:30.137Z,-1.59
2023-02-27T04:21:30.125Z,-1.50
2023-02-27T04:22:30.092Z,-1.50
2023-02-27T04:23:30.114Z,-1.49
2023-02-27T04:24:30.074Z,-1.44
2023-02-27T04:25:30.079Z,-1.54
2023-02-27T04:26:30.065Z,-1.59
2023-02-27T04:27:30.032Z,-1.64
2023-02-27T04:28:30.028Z,-1.57
2023-02-27T04:29:30.010Z,-1.51
2023-02-27T04:30:30.028Z,-1.57
2023-02-27T04:31:30.421Z,-1.59
2023-02-27T04:32:30.168Z,-1.59
2023-02-27T04:33:30.010Z,-1.65
2023-02-27T04:34:29.970Z,-1.62
2023-02-27T04:35:30.016Z,-1.57
2023-02-27T04:36:29.950Z,-1.54
2023-02-27T04:37:29.928Z,-1.54
2023-02-27T04:38:29.935Z,-1.57
2023-02-27T04:39:29.917Z,-1.59
2023-02-27T04:40:29.920Z,-1.53
2023-02-27T04:41:29.945Z,-1.47
2023-02-27T04:42:29.919Z,-1.51
2023-02-27T04:43:29.885Z,-1.47
2023-02-27T04:44:29.875Z,-1.54
2023-02-27T04:45:29.893Z,-1.47
2023-02-27T04:46:29.866Z,-1.39
2023-02-27T04:47:29.839Z,-1.44
2023-02-27T04:48:29.821Z,-1.36
2023-02-27T04:49:29.856Z,-1.50
2023-02-27T04:50:29.807Z,-1.32
2023-02-27T04:51:29.786Z,-1.41
2023-02-27T04:52:29.790Z,-1.46
2023-02-27T04:53:29.786Z,-1.36
2023-02-27T04:54:29.748Z,-1.41
2023-02-27T04:55:29.776Z,-1.43
2023-02-27T04:56:29.753Z,-1.43
2023-02-27T04:57:29.766Z,-1.46
2023-02-27T04:58:29.717Z,-1.35
2023-02-27T04:59:29.702Z,-1.36
2023-02-27T05:00:29.710Z,-1.46
2023-02-27T05:01:30.225Z,-1.39
2023-02-27T05:02:29.804Z,-1.32
2023-02-27T05:03:29.657Z,-1.36
2023-02-27T05:04:29.681Z,-1.39
2023-02-27T05:05:29.738Z,-1.41
2023-02-27T05:06:29.636Z,-1.38
2023-02-27T05:07:29.635Z,-1.33
2023-02-27T05:08:29.614Z,-1.41
2023-02-27T05:09:29.618Z,-1.39
2023-02-27T05:10:29.604Z,-1.53
2023-02-27T05:11:29.819Z,-1.53
2023-02-27T05:12:29.560Z,-1.44
2023-02-27T05:13:29.592Z,-1.41
2023-02-27T05:14:29.546Z,-1.44
2023-02-27T05:15:29.599Z,-1.41
2023-02-27T05:16:29.536Z,-1.43
2023-02-27T05:17:29.533Z,-1.43
2023-02-27T05:18:29.538Z,-1.39
2023-02-27T05:19:30.549Z,-1.44
2023-02-27T05:20:29.909Z,-1.44
2023-02-27T05:21:29.885Z,-1.49
2023-02-27T05:22:29.485Z,-1.56
2023-02-27T05:23:30.542Z,-1.62
2023-02-27T05:24:29.441Z,-1.56
2023-02-27T05:25:29.429Z,-1.39
2023-02-27T05:26:29.445Z,-1.49
2023-02-27T05:27:29.397Z,-1.43
2023-02-27T05:28:29.446Z,-1.35
2023-02-27T05:29:29.388Z,-1.38
2023-02-27T05:30:29.379Z,-1.31
2023-02-27T05:31:29.784Z,-1.31
2023-02-27T05:32:29.428Z,-1.28
2023-02-27T05:33:29.336Z,-1.23
2023-02-27T05:34:29.359Z,-1.36
2023-02-27T05:35:29.663Z,-1.41
2023-02-27T05:36:29.335Z,-1.44
2023-02-27T05:37:29.324Z,-1.57
2023-02-27T05:38:29.285Z,-1.57
2023-02-27T05:39:29.315Z,-1.62
2023-02-27T05:40:29.262Z,-1.59
2023-02-27T05:41:29.479Z,-1.56
2023-02-27T05:42:29.244Z,-1.68
2023-02-27T05:43:29.255Z,-1.64
2023-02-27T05:44:29.234Z,-1.64
2023-02-27T05:45:29.239Z,-1.67
2023-02-27T05:46:29.196Z,-1.67
2023-02-27T05:47:29.197Z,-1.61
2023-02-27T05:48:29.179Z,-1.70
2023-02-27T05:49:29.178Z,-1.64
2023-02-27T05:50:29.162Z,-1.64
2023-02-27T05:51:29.418Z,-1.74
2023-02-27T05:52:29.139Z,-1.68
2023-02-27T05:53:29.150Z,-1.74
2023-02-27T05:54:29.149Z,-1.64
2023-02-27T05:55:29.152Z,-1.65
2023-02-27T05:56:29.506Z,-1.62
2023-02-27T05:57:29.115Z,-1.64
2023-02-27T05:58:29.112Z,-1.64
2023-02-27T05:59:29.084Z,-1.56
2023-02-27T06:00:29.070Z,-1.57
2023-02-27T06:01:29.060Z,-1.54
2023-02-27T06:02:29.065Z,-1.61
2023-02-27T06:03:29.127Z,-1.59
2023-02-27T06:04:29.027Z,-1.62
2023-02-27T06:05:28.988Z,-1.65
2023-02-27T06:06:29.329Z,-1.65
2023-02-27T06:07:28.976Z,-1.59
2023-02-27T06:08:28.987Z,-1.62
2023-02-27T06:09:28.982Z,-1.59
2023-02-27T06:10:28.952Z,-1.57
2023-02-27T06:11:28.955Z,-1.41
2023-02-27T06:12:28.941Z,-1.46
2023-02-27T06:13:28.911Z,-1.47
2023-02-27T06:14:28.917Z,-1.49
2023-02-27T06:15:28.903Z,-1.39
2023-02-27T06:16:29.290Z,-1.33
2023-02-27T06:17:28.876Z,-1.31
2023-02-27T06:18:28.862Z,-1.26
2023-02-27T06:19:28.856Z,-1.21
2023-02-27T06:20:28.847Z,-1.17
2023-02-27T06:21:28.853Z,-1.15
2023-02-27T06:22:28.843Z,-1.14
2023-02-27T06:23:28.837Z,-1.15
2023-02-27T06:24:28.809Z,-1.05
2023-02-27T06:25:28.799Z,-1.10
2023-02-27T06:26:30.026Z,-1.00
2023-02-27T06:27:28.782Z,-1.02
2023-02-27T06:28:28.760Z,-0.96
2023-02-27T06:29:28.745Z,-0.90
2023-02-27T06:30:28.773Z,-1.02
2023-02-27T06:31:28.717Z,-0.93
2023-02-27T06:32:28.743Z,-1.00
2023-02-27T06:33:28.740Z,-0.95
2023-02-27T06:34:28.705Z,-1.03
2023-02-27T06:35:28.679Z,-1.00
2023-02-27T06:36:29.143Z,-1.08
2023-02-27T06:37:28.686Z,-1.13
2023-02-27T06:38:28.650Z,-1.08
2023-02-27T06:39:28.640Z,-1.20
2023-02-27T06:40:28.630Z,-1.33
2023-02-27T06:41:28.643Z,-1.35
2023-02-27T06:42:28.614Z,-1.41
2023-02-27T06:43:28.618Z,-1.32
2023-02-27T06:44:28.596Z,-1.31
2023-02-27T06:45:28.572Z,-1.31
2023-02-27T06:46:28.968Z,-1.28
2023-02-27T06:47:28.587Z,-1.11
2023-02-27T06:48:28.558Z,-1.18
2023-02-27T06:49:28.536Z,-1.15
2023-02-27T06:50:28.523Z,-1.11
2023-02-27T06:51:28.513Z,-1.00
2023-02-27T06:52:28.493Z,-1.05
2023-02-27T06:53:28.522Z,-1.05
2023-02-27T06:54:28.484Z,-1.02
2023-02-27T06:55:28.475Z,-1.02
2023-02-27T06:56:28.797Z,-1.02
2023-02-27T06:57:28.466Z,-1.03
2023-02-27T06:58:28.428Z,-0.95
2023-02-27T06:59:29.502Z,-0.93
2023-02-27T07:00:28.413Z,-1.00
2023-02-27T07:01:28.407Z,-0.96
2023-02-27T07:02:28.407Z,-0.93
2023-02-27T07:03:28.393Z,-1.03
2023-02-27T07:04:28.463Z,-1.07
2023-02-27T07:05:28.393Z,-1.03
2023-02-27T07:07:32.813Z,-1.03
2023-02-27T07:07:35.795Z,-0.99
2023-02-27T07:08:29.359Z,-1.02
2023-02-27T07:09:28.383Z,-0.96
2023-02-27T07:10:28.304Z,-1.11
2023-02-27T07:11:28.296Z,-1.15
2023-02-27T07:12:28.281Z,-1.14
2023-02-27T07:13:28.331Z,-1.25
2023-02-27T07:14:28.261Z,-1.36
2023-02-27T07:15:28.299Z,-1.26
2023-02-27T07:16:28.621Z,-1.31
2023-02-27T07:17:28.261Z,-1.35
2023-02-27T07:18:28.223Z,-1.31
2023-02-27T07:19:28.246Z,-1.29
2023-02-27T07:20:28.241Z,-1.25
2023-02-27T07:21:28.187Z,-1.23
2023-02-27T07:22:28.188Z,-1.21
2023-02-27T07:23:28.181Z,-1.21
2023-02-27T07:24:28.188Z,-1.18
2023-02-27T07:25:28.182Z,-1.26
2023-02-27T07:26:28.499Z,-1.15
2023-02-27T07:27:28.151Z,-1.25
2023-02-27T07:28:28.166Z,-1.08
2023-02-27T07:29:28.190Z,-1.08
2023-02-27T07:30:28.259Z,-1.02
2023-02-27T07:31:29.092Z,-1.08
2023-02-27T07:32:28.111Z,-1.00
2023-02-27T07:33:28.066Z,-1.00
2023-02-27T07:34:28.073Z,-0.92
2023-02-27T07:35:28.105Z,-0.92
2023-02-27T07:36:28.349Z,-0.92
2023-02-27T07:37:28.317Z,-0.85
2023-02-27T07:38:28.028Z,-0.81
2023-02-27T07:39:28.009Z,-0.80
2023-02-27T07:40:28.113Z,-0.73
2023-02-27T07:41:31.019Z,-0.74
2023-02-27T07:42:27.984Z,-0.74
2023-02-27T07:43:27.966Z,-0.73
2023-02-27T07:44:27.978Z,-0.73
2023-02-27T07:45:27.985Z,-0.76
2023-02-27T07:46:28.454Z,-0.62
2023-02-27T07:47:27.947Z,-0.62
2023-02-27T07:48:27.915Z,-0.65
2023-02-27T07:49:27.901Z,-0.59
2023-02-27T07:50:27.973Z,-0.58
2023-02-27T07:51:27.904Z,-0.56
2023-02-27T07:52:27.875Z,-0.58
2023-02-27T07:53:27.886Z,-0.44
2023-02-27T07:54:27.867Z,-0.49
2023-02-27T07:55:27.857Z,-0.35
2023-02-27T07:56:28.265Z,-0.35
2023-02-27T07:57:27.853Z,-0.31
2023-02-27T07:58:27.822Z,-0.32
2023-02-27T07:59:27.812Z,-0.24
2023-02-27T08:00:27.828Z,-0.19
2023-02-27T08:01:27.847Z,-0.17
2023-02-27T08:02:27.853Z,-0.21
2023-02-27T08:03:27.786Z,-0.16
2023-02-27T08:04:27.826Z,-0.16
2023-02-27T08:05:28.815Z,-0.19
2023-02-27T08:06:28.189Z,-0.17
2023-02-27T08:07:27.725Z,-0.09
2023-02-27T08:08:27.711Z,-0.03
2023-02-27T08:09:27.711Z,0.01
2023-02-27T08:10:27.699Z,-0.02
2023-02-27T08:11:28.082Z,-0.03
2023-02-27T08:12:27.672Z,-0.03
2023-02-27T08:13:48.549Z,-0.05
2023-02-27T08:14:28.649Z,0.16
2023-02-27T08:15:27.646Z,0.17
2023-02-27T08:16:28.284Z,0.16
2023-02-27T08:17:27.640Z,0.30
2023-02-27T08:18:27.598Z,0.22
2023-02-27T08:19:27.590Z,0.19
2023-02-27T08:20:27.595Z,0.35
2023-02-27T08:21:28.012Z,0.34
2023-02-27T08:22:27.603Z,0.44
2023-02-27T08:23:27.550Z,0.44
2023-02-27T08:24:27.540Z,0.51
2023-02-27T08:25:27.532Z,0.45
2023-02-27T08:26:27.891Z,0.53
2023-02-27T08:27:27.537Z,0.56
2023-02-27T08:28:27.538Z,0.53
2023-02-27T08:29:27.480Z,0.60
2023-02-27T08:30:27.513Z,0.70
2023-02-27T08:31:27.757Z,0.70
2023-02-27T08:32:34.666Z,0.64
2023-02-27T08:33:27.454Z,0.70
2023-02-27T08:34:28.269Z,0.71
2023-02-27T08:35:27.424Z,0.81
2023-02-27T08:36:28.123Z,0.81
2023-02-27T08:37:27.404Z,0.95
2023-02-27T08:38:28.268Z,0.86
2023-02-27T08:39:27.407Z,0.89
2023-02-27T08:40:27.795Z,0.92
2023-02-27T08:41:27.354Z,0.98
2023-02-27T08:42:28.275Z,0.89
2023-02-27T08:43:27.356Z,0.96
2023-02-27T08:44:27.798Z,1.04
2023-02-27T08:45:28.393Z,0.98
2023-02-27T08:46:28.590Z,1.10
2023-02-27T08:47:27.291Z,1.14
2023-02-27T08:48:28.277Z,1.18
2023-02-27T08:49:27.846Z,1.20
2023-02-27T08:50:27.255Z,1.26
2023-02-27T08:51:28.138Z,1.31
2023-02-27T08:52:27.765Z,1.26
2023-02-27T08:53:27.247Z,1.35
2023-02-27T08:54:27.760Z,1.28
2023-02-27T08:55:27.802Z,1.29
2023-02-27T08:56:27.574Z,1.34
2023-02-27T08:57:27.765Z,1.35
2023-02-27T08:58:27.912Z,1.42
2023-02-27T08:59:27.158Z,1.39
2023-02-27T09:00:27.786Z,1.35
2023-02-27T09:01:27.563Z,1.50
2023-02-27T09:02:27.796Z,1.52
2023-02-27T09:03:27.136Z,1.46
2023-02-27T09:04:27.800Z,1.50
2023-02-27T09:05:27.769Z,1.46
2023-02-27T09:06:27.505Z,1.53
2023-02-27T09:07:27.766Z,1.56
2023-02-27T09:08:27.767Z,1.65
2023-02-27T09:09:27.777Z,1.70
2023-02-27T09:10:27.765Z,1.82
2023-02-27T09:11:28.177Z,1.74
2023-02-27T09:12:27.780Z,1.74
2023-02-27T09:13:27.780Z,1.83
2023-02-27T09:14:27.775Z,1.82
2023-02-27T09:15:27.821Z,1.82
2023-02-27T09:16:28.333Z,1.92
2023-02-27T09:17:26.971Z,2.01
2023-02-27T09:18:27.773Z,2.04
2023-02-27T09:19:26.972Z,1.95
2023-02-27T09:20:27.781Z,2.05
2023-02-27T09:21:26.920Z,2.04
2023-02-27T09:22:27.797Z,2.00
2023-02-27T09:23:26.901Z,2.07
2023-02-27T09:24:27.768Z,2.05
2023-02-27T09:25:26.877Z,2.11
2023-02-27T09:26:42.035Z,2.19
2023-02-27T09:27:27.870Z,2.29
2023-02-27T09:28:26.839Z,2.30
2023-02-27T09:29:27.771Z,2.26
2023-02-27T09:30:26.824Z,2.25
2023-02-27T09:31:29.997Z,2.27
2023-02-27T09:32:27.922Z,2.22
2023-02-27T09:33:29.107Z,2.25
2023-02-27T09:34:28.301Z,2.18
2023-02-27T09:35:26.834Z,2.27
2023-02-27T09:36:29.706Z,2.23
2023-02-27T09:37:26.742Z,2.27
2023-02-27T09:38:28.297Z,2.22
2023-02-27T09:39:26.718Z,2.37
2023-02-27T09:40:29.282Z,2.40
2023-02-27T09:41:27.045Z,2.36
2023-02-27T09:42:28.305Z,2.38
2023-02-27T09:43:29.266Z,2.30
2023-02-27T09:44:44.927Z,2.36
2023-02-27T09:45:27.655Z,2.36
2023-02-27T09:46:29.592Z,2.41
2023-02-27T09:47:26.657Z,2.51
2023-02-27T09:48:28.303Z,2.48
2023-02-27T09:49:26.615Z,2.59
2023-02-27T09:50:29.313Z,2.66
2023-02-27T09:51:26.997Z,2.69
2023-02-27T09:52:28.319Z,2.66
2023-02-27T09:53:29.262Z,2.76
2023-02-27T09:54:26.597Z,2.66
2023-02-27T09:55:29.261Z,2.73
2023-02-27T09:56:26.858Z,2.81
2023-02-27T09:57:28.295Z,2.76
2023-02-27T09:58:26.512Z,2.90
2023-02-27T09:59:29.261Z,2.92
2023-02-27T10:00:29.265Z,2.98
2023-02-27T10:01:26.734Z,2.98
2023-02-27T10:02:29.305Z,3.05
2023-02-27T10:03:26.549Z,2.94
2023-02-27T10:04:29.264Z,3.04
2023-02-27T10:05:26.445Z,2.97
2023-02-27T10:06:28.153Z,3.07
2023-02-27T10:07:27.752Z,3.05
2023-02-27T10:08:26.452Z,3.15
2023-02-27T10:09:28.492Z,3.17
2023-02-27T10:10:26.376Z,3.10
2023-02-27T10:11:28.427Z,3.05
2023-02-27T10:12:26.363Z,3.10
2023-02-27T10:13:28.303Z,3.01
2023-02-27T10:14:26.364Z,3.04
2023-02-27T10:15:28.524Z,3.08
2023-02-27T10:16:26.858Z,3.08
2023-02-27T10:17:29.277Z,3.15
2023-02-27T10:18:29.127Z,3.04
2023-02-27T10:19:28.293Z,3.12
2023-02-27T10:20:28.303Z,3.10
2023-02-27T10:21:30.967Z,3.16
2023-02-27T10:22:26.400Z,3.23
2023-02-27T10:23:26.433Z,3.20
2023-02-27T10:24:27.254Z,3.31
2023-02-27T10:25:31.698Z,3.37
2023-02-27T10:26:27.232Z,3.53
2023-02-27T10:27:26.235Z,3.50
2023-02-27T10:28:26.198Z,3.70
2023-02-27T10:29:26.216Z,3.72
2023-02-27T10:30:34.825Z,3.86
2023-02-27T10:31:30.245Z,3.88
2023-02-27T10:32:26.150Z,3.90
2023-02-27T10:33:28.155Z,3.98
2023-02-27T10:34:26.134Z,4.14
2023-02-27T10:35:26.179Z,4.21
2023-02-27T10:36:33.541Z,4.32
2023-02-27T10:37:27.101Z,4.46
2023-02-27T10:38:26.096Z,4.43
2023-02-27T10:39:26.075Z,4.46
2023-02-27T10:40:26.114Z,4.47
2023-02-27T10:41:26.409Z,4.53
2023-02-27T10:42:26.046Z,4.50
2023-02-27T10:43:26.034Z,4.50
2023-02-27T10:44:26.024Z,4.65
2023-02-27T10:45:26.029Z,4.68
2023-02-27T10:46:26.632Z,4.80
2023-02-27T10:47:26.038Z,4.86
2023-02-27T10:48:25.977Z,4.83
2023-02-27T10:49:25.996Z,4.80
2023-02-27T10:50:25.974Z,4.87
2023-02-27T10:51:26.463Z,4.94
2023-02-27T10:52:25.950Z,4.83
2023-02-27T10:53:25.938Z,4.75
2023-02-27T10:54:25.914Z,4.75
2023-02-27T10:55:25.928Z,4.87
2023-02-27T10:56:26.414Z,4.80
2023-02-27T10:57:25.886Z,4.87
2023-02-27T10:58:25.875Z,4.94
2023-02-27T10:59:25.869Z,5.02
2023-02-27T11:00:25.870Z,5.08
2023-02-27T11:01:26.282Z,5.05
2023-02-27T11:02:25.817Z,4.99
2023-02-27T11:03:25.813Z,4.87
2023-02-27T11:04:25.859Z,4.79
2023-02-27T11:05:25.787Z,4.75
2023-02-27T11:06:25.812Z,4.72
2023-02-27T11:07:25.754Z,4.72
2023-02-27T11:08:25.762Z,4.56
2023-02-27T11:09:25.753Z,4.46
2023-02-27T11:10:25.755Z,4.38
2023-02-27T11:11:26.203Z,4.38
2023-02-27T11:12:25.731Z,4.43
2023-02-27T11:13:25.712Z,4.43
2023-02-27T11:14:25.692Z,4.42
2023-02-27T11:15:25.693Z,4.42
2023-02-27T11:16:25.687Z,4.53
2023-02-27T11:17:25.665Z,4.67
2023-02-27T11:18:46.636Z,4.96
2023-02-27T11:19:25.648Z,5.08
2023-02-27T11:20:25.629Z,5.23
2023-02-27T11:21:26.137Z,5.40
2023-02-27T11:22:25.627Z,5.51
2023-02-27T11:23:25.605Z,5.59
2023-02-27T11:24:25.584Z,5.78
2023-02-27T11:25:25.599Z,5.87
2023-02-27T11:26:25.574Z,5.87
2023-02-27T11:27:25.557Z,6.02
2023-02-27T11:28:25.576Z,6.21
2023-02-27T11:29:25.524Z,6.30
2023-02-27T11:30:25.515Z,6.30
2023-02-27T11:31:25.806Z,6.33
2023-02-27T11:32:25.621Z,6.33
2023-02-27T11:33:25.490Z,6.32
2023-02-27T11:34:25.480Z,6.50
2023-02-27T11:35:25.466Z,6.33
2023-02-27T11:36:25.456Z,6.03
2023-02-27T11:37:25.452Z,5.92
2023-02-27T11:38:25.470Z,5.73
2023-02-27T11:39:25.434Z,5.49
2023-02-27T11:40:25.404Z,5.30
2023-02-27T11:41:26.000Z,5.15
2023-02-27T11:42:25.411Z,5.24
2023-02-27T11:43:25.409Z,5.30
2023-02-27T11:44:34.121Z,5.24
2023-02-27T11:46:11.882Z,5.42
2023-02-27T11:46:47.307Z,5.37
2023-02-27T11:47:26.370Z,5.40
2023-02-27T11:48:25.355Z,5.22
2023-02-27T11:49:25.329Z,5.01
2023-02-27T11:50:25.304Z,4.91
2023-02-27T11:51:25.844Z,4.83
2023-02-27T11:52:25.281Z,4.93
2023-02-27T11:53:25.308Z,4.99
2023-02-27T11:54:25.254Z,5.04
2023-02-27T11:55:25.245Z,4.88
2023-02-27T11:56:25.247Z,4.87
2023-02-27T11:57:25.225Z,4.93
2023-02-27T11:58:25.238Z,5.06
2023-02-27T11:59:25.222Z,5.02
2023-02-27T12:00:25.216Z,5.23
2023-02-27T12:01:25.528Z,5.17
2023-02-27T12:02:25.239Z,5.26
2023-02-27T12:03:25.197Z,5.32
2023-02-27T12:04:25.172Z,5.41
2023-02-27T12:05:25.143Z,5.37
2023-02-27T12:06:25.128Z,4.94
2023-02-27T12:07:25.122Z,4.65
2023-02-27T12:08:25.107Z,4.61
2023-02-27T12:09:25.115Z,4.43
2023-02-27T12:10:25.077Z,4.42
2023-02-27T12:11:25.070Z,4.49
2023-02-27T12:12:25.069Z,4.50
2023-02-27T12:13:25.077Z,4.42
2023-02-27T12:14:25.153Z,4.53
2023-02-27T12:15:25.044Z,4.65
2023-02-27T12:16:25.197Z,4.84
2023-02-27T12:17:25.007Z,5.02
2023-02-27T12:18:25.007Z,5.17
2023-02-27T12:19:25.006Z,5.08
2023-02-27T12:20:26.033Z,5.23
2023-02-27T12:21:24.969Z,5.44
2023-02-27T12:22:24.978Z,5.70
2023-02-27T12:23:24.955Z,6.01
2023-02-27T12:24:24.935Z,6.16
2023-02-27T12:25:24.970Z,6.33
2023-02-27T12:26:25.040Z,6.38
2023-02-27T12:27:24.918Z,6.61
2023-02-27T12:28:24.913Z,6.91
2023-02-27T12:29:24.889Z,7.08
2023-02-27T12:30:24.862Z,7.12
2023-02-27T12:31:25.992Z,7.21
2023-02-27T12:32:25.104Z,7.47
2023-02-27T12:33:24.831Z,7.44
2023-02-27T12:34:24.844Z,7.45
2023-02-27T12:35:24.876Z,7.23
2023-02-27T12:36:24.792Z,7.15
2023-02-27T12:37:24.794Z,7.12
2023-02-27T12:38:24.783Z,6.96
2023-02-27T12:39:24.789Z,6.93
2023-02-27T12:40:24.744Z,6.96
2023-02-27T12:41:24.977Z,7.00
2023-02-27T12:42:24.724Z,6.73
2023-02-27T12:43:24.716Z,6.55
2023-02-27T12:44:24.720Z,6.38
2023-02-27T12:45:24.714Z,6.16
2023-02-27T12:46:24.698Z,6.08
2023-02-27T12:47:24.694Z,6.02
2023-02-27T12:48:24.679Z,5.92
2023-02-27T12:49:24.654Z,5.83
2023-02-27T12:50:24.650Z,5.77
2023-02-27T12:51:24.622Z,5.70
2023-02-27T12:52:24.640Z,5.67
2023-02-27T12:53:24.602Z,5.78
2023-02-27T12:54:24.609Z,5.77
2023-02-27T12:55:24.580Z,5.66
2023-02-27T12:56:24.581Z,5.75
2023-02-27T12:57:24.594Z,5.78
2023-02-27T12:58:24.559Z,5.78
2023-02-27T12:59:24.551Z,5.75
2023-02-27T13:00:24.538Z,5.81
2023-02-27T13:01:24.638Z,5.80
2023-02-27T13:02:24.538Z,5.87
2023-02-27T13:03:24.504Z,5.75